| time (UTC) | temp C | wind direction | speed KPH | gust KPH | rain 1hr cm | rain 24hr cm | rain mn cm | humidity % | barometer mb |
| 20260507165835 | 22 | 243 | 14.5 | 16.1 | 0.00 | 0.00 | 0.00 | 30 | 1027.3 |
| 20260507164833 | 22 | 251 | 9.7 | 17.7 | 0.00 | 0.00 | 0.00 | 29 | 1027.4 |
| 20260507163833 | 22 | 288 | 8.0 | 20.9 | 0.00 | 0.00 | 0.00 | 30 | 1027.3 |
| 20260507162833 | 22 | 193 | 8.0 | 17.7 | 0.00 | 0.00 | 0.00 | 29 | 1027.6 |
| 20260507161831 | 22 | 229 | 4.8 | 9.7 | 0.00 | 0.00 | 0.00 | 29 | 1027.8 |
| 20260507160830 | 21 | 264 | 4.8 | 11.3 | 0.00 | 0.00 | 0.00 | 29 | 1027.4 |
| 20260507155828 | 21 | 270 | 8.0 | 11.3 | 0.00 | 0.00 | 0.00 | 29 | 1027.8 |
| 20260507154827 | 21 | 255 | 8.0 | 12.9 | 0.00 | 0.00 | 0.00 | 29 | 1027.8 |
| 20260507153827 | 21 | 271 | 9.7 | 12.9 | 0.00 | 0.00 | 0.00 | 29 | 1027.5 |
| 20260507152826 | 21 | 246 | 14.5 | 17.7 | 0.00 | 0.00 | 0.00 | 29 | 1027.8 |
| 20260507151824 | 20 | 267 | 12.9 | 14.5 | 0.00 | 0.00 | 0.00 | 30 | 1027.8 |
| 20260507150824 | 21 | 243 | 1.6 | 3.2 | 0.00 | 0.00 | 0.00 | 29 | 1027.9 |
| 20260507145822 | 20 | 242 | 0.0 | 4.8 | 0.00 | 0.00 | 0.00 | 30 | 1027.9 |
| 20260507144822 | 21 | 292 | 4.8 | 9.7 | 0.00 | 0.00 | 0.00 | 30 | 1027.5 |
| 20260507143821 | 20 | 224 | 1.6 | 3.2 | 0.00 | 0.00 | 0.00 | 32 | 1027.5 |
| 20260507142821 | 20 | 218 | 1.6 | 3.2 | 0.00 | 0.00 | 0.00 | 32 | 1027.4 |
| 20260507141820 | 19 | 236 | 4.8 | 4.8 | 0.00 | 0.00 | 0.00 | 33 | 1027.3 |
| 20260507140819 | 19 | 235 | 3.2 | 4.8 | 0.00 | 0.00 | 0.00 | 34 | 1027.5 |
| 20260507135814 | 18 | 263 | 4.8 | 8.0 | 0.00 | 0.00 | 0.00 | 35 | 1027.5 |
| 20260507134814 | 18 | 269 | 4.8 | 4.8 | 0.00 | 0.00 | 0.00 | 34 | 1027.4 |
| 20260507133811 | 19 | 225 | 1.6 | 1.6 | 0.00 | 0.00 | 0.00 | 34 | 1027.4 |
| 20260507132811 | 19 | 203 | 0.0 | 0.0 | 0.00 | 0.00 | 0.00 | 35 | 1027.3 |
| 20260507131811 | 18 | 206 | 0.0 | 3.2 | 0.00 | 0.00 | 0.00 | 35 | 1027.3 |
| 20260507130810 | 17 | 258 | 3.2 | 3.2 | 0.00 | 0.00 | 0.00 | 38 | 1027.1 |
| 20260507125806 | 17 | 249 | 3.2 | 4.8 | 0.00 | 0.00 | 0.00 | 37 | 1027.0 |
| 20260507124806 | 17 | 208 | 0.0 | 1.6 | 0.00 | 0.00 | 0.00 | 38 | 1027.1 |
| 20260507123801 | 16 | 95 | 8.0 | 9.7 | 0.00 | 0.00 | 0.00 | 38 | 1026.8 |
| 20260507122800 | 17 | 228 | 3.2 | 3.2 | 0.00 | 0.00 | 0.00 | 37 | 1026.5 |
| 20260507121757 | 17 | 230 | 3.2 | 8.0 | 0.00 | 0.00 | 0.00 | 38 | 1026.5 |
| 20260507120756 | 17 | 202 | 1.6 | 4.8 | 0.00 | 0.00 | 0.00 | 38 | 1026.4 |
| 20260507115755 | 16 | 228 | 0.0 | 1.6 | 0.00 | 0.00 | 0.00 | 39 | 1026.6 |
| 20260507114752 | 16 | 224 | 1.6 | 3.2 | 0.00 | 0.00 | 0.00 | 38 | 1026.5 |
| 20260507113747 | 16 | 223 | 0.0 | 0.0 | 0.00 | 0.00 | 0.00 | 39 | 1026.5 |
| 20260507112747 | 16 | 222 | 1.6 | 3.2 | 0.00 | 0.00 | 0.00 | 39 | 1026.6 |
| 20260507111742 | 16 | 217 | 0.0 | 0.0 | 0.00 | 0.00 | 0.00 | 39 | 1026.6 |
| 20260507110740 | 16 | 185 | 0.0 | 3.2 | 0.00 | 0.00 | 0.00 | 39 | 1026.6 |
| 20260507105740 | 16 | 88 | 6.4 | 8.0 | 0.00 | 0.00 | 0.00 | 39 | 1026.5 |
| 20260507104739 | 16 | 179 | 1.6 | 3.2 | 0.00 | 0.00 | 0.00 | 38 | 1026.5 |
| 20260507103737 | 16 | 228 | 1.6 | 1.6 | 0.00 | 0.00 | 0.00 | 38 | 1026.6 |
| 20260507102736 | 16 | 223 | 0.0 | 1.6 | 0.00 | 0.00 | 0.00 | 38 | 1026.5 |
| 20260507101735 | 17 | 270 | 3.2 | 3.2 | 0.00 | 0.00 | 0.00 | 37 | 1026.6 |
| 20260507100734 | 17 | 158 | 4.8 | 4.8 | 0.00 | 0.00 | 0.00 | 37 | 1026.5 |
| 20260507095729 | 17 | 190 | 1.6 | 1.6 | 0.00 | 0.00 | 0.00 | 37 | 1026.4 |
| 20260507094729 | 17 | 240 | 4.8 | 11.3 | 0.00 | 0.00 | 0.00 | 37 | 1026.1 |
| 20260507093728 | 17 | 238 | 8.0 | 11.3 | 0.00 | 0.00 | 0.00 | 37 | 1025.9 |
| 20260507092724 | 17 | 243 | 6.4 | 11.3 | 0.00 | 0.00 | 0.00 | 37 | 1026.2 |
| 20260507091722 | 17 | 232 | 8.0 | 14.5 | 0.00 | 0.00 | 0.00 | 37 | 1026.0 |
| 20260507090719 | 17 | 244 | 6.4 | 11.3 | 0.00 | 0.00 | 0.00 | 37 | 1026.1 |
| 20260507085719 | 17 | 212 | 11.3 | 14.5 | 0.00 | 0.00 | 0.00 | 36 | 1025.9 |
| 20260507084719 | 17 | 236 | 9.7 | 14.5 | 0.00 | 0.00 | 0.00 | 36 | 1026.2 |
| 20260507083718 | 17 | 261 | 9.7 | 12.9 | 0.00 | 0.00 | 0.00 | 36 | 1026.2 |
| 20260507082716 | 17 | 245 | 9.7 | 14.5 | 0.00 | 0.00 | 0.00 | 36 | 1026.2 |
| 20260507081714 | 17 | 267 | 11.3 | 16.1 | 0.00 | 0.00 | 0.00 | 36 | 1026.1 |
| 20260507080713 | 17 | 230 | 11.3 | 16.1 | 0.00 | 0.00 | 0.00 | 36 | 1026.4 |
| 20260507075711 | 17 | 257 | 12.9 | 17.7 | 0.00 | 0.00 | 0.00 | 35 | 1026.4 |
| 20260507074709 | 17 | 255 | 11.3 | 17.7 | 0.00 | 0.00 | 0.00 | 35 | 1026.8 |
| 20260507073704 | 17 | 234 | 8.0 | 16.1 | 0.00 | 0.00 | 0.00 | 35 | 1026.6 |
| 20260507072704 | 17 | 261 | 8.0 | 14.5 | 0.00 | 0.00 | 0.00 | 35 | 1026.9 |
| 20260507071659 | 18 | 277 | 11.3 | 14.5 | 0.00 | 0.00 | 0.00 | 34 | 1027.0 |
| 20260507070659 | 18 | 255 | 11.3 | 22.5 | 0.00 | 0.00 | 0.00 | 34 | 1026.8 |
| 20260507065657 | 18 | 249 | 8.0 | 12.9 | 0.00 | 0.00 | 0.00 | 34 | 1027.0 |
| 20260507064657 | 18 | 263 | 8.0 | 14.5 | 0.00 | 0.00 | 0.00 | 34 | 1027.1 |
| 20260507063653 | 18 | 244 | 8.0 | 14.5 | 0.00 | 0.00 | 0.00 | 34 | 1027.0 |
| 20260507062652 | 18 | 280 | 9.7 | 14.5 | 0.00 | 0.00 | 0.00 | 34 | 1027.1 |
| 20260507061648 | 18 | 234 | 9.7 | 20.9 | 0.00 | 0.00 | 0.00 | 34 | 1026.9 |
| 20260507060643 | 18 | 255 | 9.7 | 17.7 | 0.00 | 0.00 | 0.00 | 33 | 1027.4 |
| 20260507055641 | 18 | 261 | 12.9 | 16.1 | 0.00 | 0.00 | 0.00 | 33 | 1027.5 |
| 20260507054639 | 18 | 254 | 12.9 | 14.5 | 0.00 | 0.00 | 0.00 | 32 | 1027.6 |
| 20260507053634 | 18 | 258 | 9.7 | 16.1 | 0.00 | 0.00 | 0.00 | 32 | 1027.3 |
| 20260507052630 | 18 | 261 | 9.7 | 14.5 | 0.00 | 0.00 | 0.00 | 32 | 1027.4 |
| 20260507051630 | 19 | 229 | 9.7 | 12.9 | 0.00 | 0.00 | 0.00 | 31 | 1027.5 |
| 20260507050629 | 19 | 262 | 9.7 | 14.5 | 0.00 | 0.00 | 0.00 | 31 | 1027.3 |
| 20260507045629 | 19 | 233 | 8.0 | 11.3 | 0.00 | 0.00 | 0.00 | 30 | 1027.6 |
| 20260507044628 | 19 | 265 | 3.2 | 12.9 | 0.00 | 0.00 | 0.00 | 30 | 1027.6 |
| 20260507043626 | 20 | 241 | 9.7 | 14.5 | 0.00 | 0.00 | 0.00 | 29 | 1027.5 |
| 20260507042626 | 20 | 243 | 8.0 | 11.3 | 0.00 | 0.00 | 0.00 | 29 | 1027.6 |
| 20260507041624 | 20 | 257 | 8.0 | 14.5 | 0.00 | 0.00 | 0.00 | 28 | 1027.1 |
| 20260507040624 | 20 | 260 | 11.3 | 16.1 | 0.00 | 0.00 | 0.00 | 27 | 1027.1 |
| 20260507035622 | 20 | 229 | 9.7 | 24.1 | 0.00 | 0.00 | 0.00 | 27 | 1027.0 |
| 20260507034621 | 20 | 258 | 9.7 | 12.9 | 0.00 | 0.00 | 0.00 | 26 | 1027.3 |
| 20260507033617 | 20 | 277 | 8.0 | 12.9 | 0.00 | 0.00 | 0.00 | 25 | 1027.0 |
| 20260507032617 | 20 | 257 | 8.0 | 11.3 | 0.00 | 0.00 | 0.00 | 25 | 1026.9 |
| 20260507031615 | 21 | 262 | 8.0 | 12.9 | 0.00 | 0.00 | 0.00 | 25 | 1026.6 |
| 20260507030614 | 21 | 282 | 11.3 | 17.7 | 0.00 | 0.00 | 0.00 | 25 | 1026.6 |
| 20260507025609 | 21 | 275 | 11.3 | 17.7 | 0.00 | 0.00 | 0.00 | 25 | 1026.6 |
| 20260507024604 | 21 | 259 | 12.9 | 20.9 | 0.00 | 0.00 | 0.00 | 24 | 1026.4 |
| 20260507023602 | 22 | 272 | 14.5 | 20.9 | 0.00 | 0.00 | 0.00 | 24 | 1026.2 |
| 20260507022557 | 22 | 238 | 16.1 | 24.1 | 0.00 | 0.00 | 0.00 | 23 | 1026.0 |
| 20260507021554 | 22 | 254 | 17.7 | 24.1 | 0.00 | 0.00 | 0.00 | 23 | 1026.1 |
| 20260507020549 | 22 | 246 | 11.3 | 24.1 | 0.00 | 0.00 | 0.00 | 22 | 1026.0 |
| 20260507015549 | 22 | 258 | 12.9 | 20.9 | 0.00 | 0.00 | 0.00 | 22 | 1025.9 |
| 20260507014549 | 23 | 276 | 12.9 | 20.9 | 0.00 | 0.00 | 0.00 | 21 | 1025.6 |
| 20260507013547 | 23 | 250 | 12.9 | 22.5 | 0.00 | 0.00 | 0.00 | 21 | 1025.5 |
| 20260507012542 | 23 | 256 | 24.1 | 32.2 | 0.00 | 0.00 | 0.00 | 21 | 1025.3 |
| 20260507011541 | 23 | 260 | 20.9 | 29.0 | 0.00 | 0.00 | 0.00 | 20 | 1025.0 |
| 20260507010537 | 24 | 280 | 20.9 | 33.8 | 0.00 | 0.00 | 0.00 | 20 | 1025.1 |
| 20260507005532 | 25 | 256 | 16.1 | 35.4 | 0.00 | 0.00 | 0.00 | 19 | 1025.1 |
| 20260507004531 | 25 | 265 | 22.5 | 32.2 | 0.00 | 0.00 | 0.00 | 19 | 1025.1 |
| 20260507003530 | 25 | 255 | 17.7 | 24.1 | 0.00 | 0.00 | 0.00 | 19 | 1025.1 |
| 20260507002528 | 25 | 280 | 20.9 | 27.4 | 0.00 | 0.00 | 0.00 | 17 | 1024.8 |
| 20260507001526 | 25 | 262 | 20.9 | 32.2 | 0.00 | 0.00 | 0.00 | 17 | 1024.5 |
| 20260507000526 | 25 | 235 | 11.3 | 25.7 | 0.00 | 0.00 | 0.00 | 17 | 1024.5 |
| 20260506235525 | 26 | 257 | 22.5 | 32.2 | 0.00 | 0.00 | 0.00 | 17 | 1024.7 |
| 20260506234524 | 26 | 247 | 20.9 | 27.4 | 0.00 | 0.00 | 0.00 | 16 | 1024.6 |
| 20260506233524 | 26 | 237 | 14.5 | 33.8 | 0.00 | 0.00 | 0.00 | 17 | 1024.6 |
| 20260506232523 | 26 | 262 | 16.1 | 29.0 | 0.00 | 0.00 | 0.00 | 17 | 1024.5 |
| 20260506231522 | 26 | 249 | 14.5 | 24.1 | 0.00 | 0.00 | 0.00 | 17 | 1024.6 |
| 20260506230521 | 26 | 277 | 16.1 | 27.4 | 0.00 | 0.00 | 0.00 | 18 | 1024.3 |
| 20260506225516 | 26 | 290 | 9.7 | 32.2 | 0.00 | 0.00 | 0.00 | 17 | 1024.7 |
| 20260506224515 | 26 | 214 | 12.9 | 27.4 | 0.00 | 0.00 | 0.00 | 17 | 1024.2 |
| 20260506223512 | 26 | 258 | 20.9 | 32.2 | 0.00 | 0.00 | 0.00 | 18 | 1024.5 |
| 20260506222511 | 26 | 248 | 32.2 | 38.6 | 0.00 | 0.00 | 0.00 | 17 | 1024.5 |
| 20260506221510 | 26 | 224 | 16.1 | 27.4 | 0.00 | 0.00 | 0.00 | 16 | 1024.3 |
| 20260506220508 | 26 | 255 | 11.3 | 22.5 | 0.00 | 0.00 | 0.00 | 17 | 1024.5 |
| 20260506215507 | 26 | 259 | 16.1 | 37.0 | 0.00 | 0.00 | 0.00 | 17 | 1024.3 |
| 20260506214506 | 26 | 262 | 27.4 | 38.6 | 0.00 | 0.00 | 0.00 | 16 | 1024.6 |
| 20260506213500 | 26 | 261 | 27.4 | 41.8 | 0.00 | 0.00 | 0.00 | 17 | 1024.6 |
| 20260506212459 | 26 | 248 | 22.5 | 35.4 | 0.00 | 0.00 | 0.00 | 16 | 1024.8 |
| 20260506211456 | 26 | 248 | 19.3 | 37.0 | 0.00 | 0.00 | 0.00 | 16 | 1024.8 |
| 20260506210456 | 26 | 244 | 19.3 | 27.4 | 0.00 | 0.00 | 0.00 | 16 | 1025.1 |
| 20260506205455 | 26 | 256 | 9.7 | 29.0 | 0.00 | 0.00 | 0.00 | 16 | 1025.0 |
| 20260506204455 | 26 | 267 | 4.8 | 24.1 | 0.00 | 0.00 | 0.00 | 17 | 1025.1 |
| 20260506203455 | 26 | 253 | 29.0 | 38.6 | 0.00 | 0.00 | 0.00 | 17 | 1025.2 |
| 20260506202455 | 25 | 258 | 12.9 | 25.7 | 0.00 | 0.00 | 0.00 | 16 | 1025.2 |
| 20260506201455 | 25 | 270 | 22.5 | 32.2 | 0.00 | 0.00 | 0.00 | 16 | 1026.1 |
| 20260506200454 | 26 | 252 | 14.5 | 29.0 | 0.00 | 0.00 | 0.00 | 16 | 1025.6 |
| 20260506195454 | 25 | 260 | 8.0 | 22.5 | 0.00 | 0.00 | 0.00 | 17 | 1025.7 |
| 20260506194448 | 25 | 288 | 17.7 | 20.9 | 0.00 | 0.00 | 0.00 | 17 | 1026.0 |
| 20260506193447 | 25 | 225 | 17.7 | 25.7 | 0.00 | 0.00 | 0.00 | 17 | 1026.1 |
| 20260506192447 | 25 | 247 | 16.1 | 27.4 | 0.00 | 0.00 | 0.00 | 17 | 1026.2 |
| 20260506191446 | 25 | 288 | 22.5 | 27.4 | 0.00 | 0.00 | 0.00 | 16 | 1026.8 |
| 20260506190445 | 25 | 248 | 11.3 | 20.9 | 0.00 | 0.00 | 0.00 | 16 | 1026.6 |
| 20260506185445 | 25 | 246 | 27.4 | 32.2 | 0.00 | 0.00 | 0.00 | 17 | 1026.8 |
| 20260506184445 | 25 | 217 | 20.9 | 27.4 | 0.00 | 0.00 | 0.00 | 17 | 1026.9 |
| 20260506183443 | 25 | 223 | 11.3 | 32.2 | 0.00 | 0.00 | 0.00 | 16 | 1027.0 |
| 20260506182438 | 25 | 261 | 17.7 | 35.4 | 0.00 | 0.00 | 0.00 | 17 | 1027.1 |
| 20260506181433 | 24 | 259 | 11.3 | 24.1 | 0.00 | 0.00 | 0.00 | 16 | 1027.1 |
| 20260506180432 | 24 | 244 | 14.5 | 27.4 | 0.00 | 0.00 | 0.00 | 16 | 1027.3 |
| 20260506175431 | 23 | 262 | 20.9 | 29.0 | 0.00 | 0.00 | 0.00 | 17 | 1027.4 |
| 20260506174426 | 23 | 270 | 16.1 | 25.7 | 0.00 | 0.00 | 0.00 | 16 | 1027.3 |
| 20260506173425 | 23 | 259 | 17.7 | 25.7 | 0.00 | 0.00 | 0.00 | 16 | 1027.3 |
| 20260506172425 | 23 | 250 | 14.5 | 24.1 | 0.00 | 0.00 | 0.00 | 16 | 1027.4 |
| 20260506171425 | 23 | 254 | 12.9 | 22.5 | 0.00 | 0.00 | 0.00 | 16 | 1027.6 |
| 20260506170425 | 22 | 256 | 9.7 | 29.0 | 0.00 | 0.00 | 0.00 | 16 | 1027.6 |